Stations météo

Publicité
Luchon/SA, France (7724): Température de l'air & dewpoint: 14.09.2019 05:00:00 - 20.09.2019 05:00:00 (CEST)Luchon/SA, France (7724): Vitesse du vent & gusts: 14.09.2019 05:00:00 - 20.09.2019 05:00:00 (CEST)Luchon/SA, France (7724): Direction du vent: 14.09.2019 05:00:00 - 20.09.2019 05:00:00 (CEST)Luchon/SA, France (7724): Quantités de précipitations: 14.09.2019 05:00:00 - 20.09.2019 05:00:00 (CEST)
Date & Time tt [°C] td [°C] ff [km/h] ff [knt] fx [km/h] fx [knt] dd rr [mm]
20.09.2019 05:00:00 - - - - - - - -
20.09.2019 04:00:00 12,5 12,0 0 0 8 4 N 0,0
20.09.2019 03:00:00 13,2 12,7 2 1 8 4 N 0,0
20.09.2019 02:00:00 14,2 13,4 0 0 8 4 N -
20.09.2019 01:00:00 14,6 13,3 2 1 11 6 SSE 0,0
20.09.2019 00:00:00 15,5 14,4 5 3 16 9 S 0,0
19.09.2019 23:00:00 15,8 14,8 2 1 13 7 SE 0,0
19.09.2019 22:00:00 16,8 15,5 4 2 9 5 N 0,0
19.09.2019 21:00:00 17,6 15,6 8 4 11 6 N 0,2
19.09.2019 20:00:00 19,1 15,4 4 2 15 8 NNE -
19.09.2019 19:00:00 19,6 16,8 0 0 8 4 N 0,0
19.09.2019 18:00:00 20,3 16,7 0 0 11 6 N 0,0
19.09.2019 17:00:00 21,3 17,1 8 4 34 18 NNE 0,0
19.09.2019 16:00:00 24,5 16,5 18 10 35 19 N 0,0
19.09.2019 15:00:00 24,3 15,8 16 9 29 16 N 0,0
19.09.2019 14:00:00 23,3 15,1 9 5 18 10 NNE -
19.09.2019 13:00:00 21,6 14,0 4 2 13 7 NE 0,0
19.09.2019 12:00:00 20,0 13,9 4 2 11 6 E 0,0
19.09.2019 11:00:00 17,1 13,0 2 1 8 4 S 0,0
19.09.2019 10:00:00 13,3 12,2 4 2 8 4 S 0,0
19.09.2019 09:00:00 11,7 11,4 0 0 8 4 N 0,0
19.09.2019 08:00:00 11,2 10,9 2 1 9 5 S -
19.09.2019 07:00:00 11,1 10,8 4 2 8 4 N 0,0
19.09.2019 06:00:00 11,2 10,7 2 1 8 4 SSW 0,0
19.09.2019 05:00:00 11,4 10,8 2 1 18 10 SE 0,0
19.09.2019 04:00:00 12,4 11,8 9 5 16 9 SSE 0,0
19.09.2019 03:00:00 12,3 11,8 0 0 5 3 N 0,0
19.09.2019 02:00:00 13,0 12,4 4 2 9 5 NE -
19.09.2019 01:00:00 13,4 12,5 2 1 13 7 SSE 0,0
19.09.2019 00:00:00 13,4 12,5 4 2 9 5 S 0,0
18.09.2019 23:00:00 13,5 12,4 5 3 8 4 SSE 0,0
18.09.2019 22:00:00 14,8 12,8 2 1 24 13 W 0,2
18.09.2019 21:00:00 15,5 14,0 5 3 13 7 SSW 0,0
18.09.2019 20:00:00 15,8 14,2 4 2 26 14 E -
18.09.2019 19:00:00 15,5 13,5 5 3 31 17 ESE 0,0
18.09.2019 18:00:00 16,1 12,8 9 5 59 32 SSE 6,0
18.09.2019 17:00:00 22,2 17,3 18 10 39 21 N 0,0
18.09.2019 16:00:00 22,5 17,4 22 12 37 20 N 0,0
18.09.2019 15:00:00 23,5 16,5 16 9 35 19 N 0,0
18.09.2019 14:00:00 24,1 17,3 8 4 16 9 NE -
18.09.2019 13:00:00 23,9 14,6 4 2 11 6 E 0,0
18.09.2019 12:00:00 22,6 15,9 2 1 9 5 E 0,0
18.09.2019 11:00:00 19,6 15,9 0 0 8 4 N 0,0
18.09.2019 10:00:00 16,2 14,6 2 1 5 3 E 0,0
18.09.2019 09:00:00 14,0 13,5 2 1 8 4 ESE 0,2
18.09.2019 08:00:00 13,5 12,7 2 1 8 4 SE -
18.09.2019 07:00:00 14,3 13,5 2 1 11 6 S 0,0
18.09.2019 06:00:00 15,3 14,2 2 1 11 6 ENE 0,0
18.09.2019 05:00:00 16,0 15,0 4 2 13 7 SSE 0,0
18.09.2019 04:00:00 17,0 15,3 8 4 16 9 S 1,0
18.09.2019 03:00:00 17,6 17,1 4 2 8 4 NNE 1,0
18.09.2019 02:00:00 17,6 17,0 0 0 9 5 N -
18.09.2019 01:00:00 17,5 17,0 4 2 5 3 SE 0,0
18.09.2019 00:00:00 17,9 17,1 0 0 4 2 N 0,0
17.09.2019 23:00:00 18,5 17,3 0 0 15 8 N 0,0
17.09.2019 22:00:00 19,1 17,8 0 0 22 12 N 0,4
17.09.2019 21:00:00 19,7 17,8 9 5 26 14 S 0,4
17.09.2019 20:00:00 21,0 17,8 9 5 22 12 SSW -
17.09.2019 19:00:00 21,6 19,2 4 2 8 4 E 0,0
17.09.2019 18:00:00 22,2 18,4 5 3 22 12 ENE 0,0
17.09.2019 17:00:00 25,1 17,8 2 1 24 13 NE 0,0
17.09.2019 16:00:00 26,2 17,3 11 6 26 14 N 0,0
17.09.2019 15:00:00 26,8 16,4 15 8 29 16 N 0,0
17.09.2019 14:00:00 26,0 17,1 16 9 28 15 NNE -
17.09.2019 13:00:00 24,6 16,6 4 2 11 6 ESE 0,0
17.09.2019 12:00:00 22,1 16,1 4 2 9 5 NE 0,0
17.09.2019 11:00:00 19,2 15,9 2 1 8 4 ESE 0,0
17.09.2019 10:00:00 16,0 15,2 0 0 8 4 N 0,0
17.09.2019 09:00:00 13,6 13,4 0 0 4 2 N 0,0
17.09.2019 08:00:00 12,9 12,7 0 0 4 2 N -
17.09.2019 07:00:00 13,6 13,4 0 0 5 3 N 0,0
17.09.2019 06:00:00 13,6 13,3 0 0 4 2 N 0,0
17.09.2019 05:00:00 14,3 14,1 0 0 4 2 N 0,0
17.09.2019 04:00:00 14,4 13,9 0 0 4 2 N 0,0
17.09.2019 03:00:00 15,0 14,2 0 0 5 3 N 0,0
17.09.2019 02:00:00 16,2 15,7 2 1 5 3 SW -
17.09.2019 01:00:00 17,1 16,6 2 1 5 3 NNW 0,0
17.09.2019 00:00:00 17,7 17,2 4 2 8 4 N 0,0
16.09.2019 23:00:00 18,5 17,7 4 2 16 9 ENE 0,0
16.09.2019 22:00:00 19,6 17,6 4 2 13 7 N 0,2
16.09.2019 21:00:00 21,3 17,7 4 2 9 5 SE 0,0
16.09.2019 20:00:00 21,9 17,1 4 2 18 10 E -
16.09.2019 19:00:00 24,2 16,2 11 6 28 15 N 0,0
16.09.2019 18:00:00 25,1 16,3 13 7 31 17 N 0,0
16.09.2019 17:00:00 25,4 16,5 15 8 39 21 N 0,0
16.09.2019 16:00:00 26,6 16,5 18 10 37 20 N 0,0
16.09.2019 15:00:00 26,6 17,1 16 9 28 15 N 0,0
16.09.2019 14:00:00 25,9 17,0 11 6 24 13 NNE -
16.09.2019 13:00:00 24,3 15,5 8 4 16 9 ENE 0,0
16.09.2019 12:00:00 22,4 14,5 4 2 11 6 S 0,0
16.09.2019 11:00:00 19,4 14,9 4 2 8 4 ENE 0,0
16.09.2019 10:00:00 15,7 14,6 4 2 8 4 NE 0,0
16.09.2019 09:00:00 13,3 13,0 0 0 5 3 N 0,0
16.09.2019 08:00:00 12,6 12,3 2 1 8 4 NNE -
16.09.2019 07:00:00 12,4 12,1 4 2 8 4 SSW 0,0
16.09.2019 06:00:00 13,1 12,8 2 1 5 3 NE 0,0
16.09.2019 05:00:00 13,7 13,4 0 0 4 2 N 0,0
16.09.2019 04:00:00 14,3 14,0 2 1 8 4 W 0,0
16.09.2019 03:00:00 14,7 13,9 2 1 8 4 NNE 0,0
16.09.2019 02:00:00 14,9 14,1 2 1 5 3 ENE -
16.09.2019 01:00:00 16,3 15,0 4 2 13 7 NNW 0,0
16.09.2019 00:00:00 16,7 15,7 2 1 8 4 S 0,0
15.09.2019 23:00:00 17,3 16,2 0 0 8 4 N 0,0
15.09.2019 22:00:00 18,7 16,7 4 2 11 6 SSW 0,0
15.09.2019 21:00:00 19,6 17,2 4 2 9 5 SSE 0,0
15.09.2019 20:00:00 21,1 17,1 4 2 13 7 S -
15.09.2019 19:00:00 22,4 17,3 8 4 15 8 S 0,0
15.09.2019 18:00:00 24,6 17,6 8 4 24 13 SW 0,0
15.09.2019 17:00:00 27,4 15,7 11 6 31 17 NNW 0,0
15.09.2019 16:00:00 27,3 16,0 15 8 29 16 N 0,0
15.09.2019 15:00:00 27,2 15,6 11 6 18 10 NNE 0,0
15.09.2019 14:00:00 26,3 15,4 5 3 13 7 SSE -
15.09.2019 13:00:00 25,5 14,6 2 1 16 9 SE 0,0
15.09.2019 12:00:00 24,0 15,2 2 1 9 5 E 0,0
15.09.2019 11:00:00 21,9 16,2 2 1 13 7 E 0,0
15.09.2019 10:00:00 17,7 14,6 4 2 9 5 N 0,0
15.09.2019 09:00:00 16,3 14,3 5 3 24 13 WSW 0,0
15.09.2019 08:00:00 13,8 13,0 11 6 22 12 ESE -
15.09.2019 07:00:00 12,7 12,2 0 0 8 4 N 0,0
15.09.2019 06:00:00 12,9 12,4 0 0 9 5 N 0,2
15.09.2019 05:00:00 13,3 13,0 2 1 8 4 ENE 0,0
15.09.2019 04:00:00 13,6 13,0 4 2 9 5 E 0,0
15.09.2019 03:00:00 14,5 14,0 4 2 9 5 NNE 0,0
15.09.2019 02:00:00 15,0 14,5 4 2 8 4 ESE -
15.09.2019 01:00:00 14,9 14,3 0 0 9 5 N 0,0
15.09.2019 00:00:00 15,1 14,1 0 0 4 2 N 0,0
14.09.2019 23:00:00 16,1 15,1 0 0 5 3 N 0,0
14.09.2019 22:00:00 17,5 16,9 4 2 11 6 E 0,0
14.09.2019 21:00:00 18,9 17,0 8 4 15 8 ESE 0,0
14.09.2019 20:00:00 19,9 18,0 0 0 9 5 N -
14.09.2019 19:00:00 21,4 18,8 4 2 9 5 NNE 0,0
14.09.2019 18:00:00 22,9 18,0 2 1 22 12 NE 0,4
14.09.2019 17:00:00 24,7 15,9 9 5 37 20 N 0,0
14.09.2019 16:00:00 26,0 15,1 18 10 39 21 N 0,0
14.09.2019 15:00:00 25,8 14,0 15 8 29 16 N 0,0
14.09.2019 14:00:00 24,7 15,1 5 3 29 16 E -
14.09.2019 13:00:00 24,4 14,2 8 4 16 9 NNW 0,0
14.09.2019 12:00:00 21,6 13,2 8 4 13 7 N 0,0
14.09.2019 11:00:00 19,1 13,7 5 3 11 6 SSE 0,0
14.09.2019 10:00:00 15,1 13,5 4 2 9 5 SSE 0,0
14.09.2019 09:00:00 12,0 11,7 2 1 9 5 N 0,0
14.09.2019 08:00:00 11,3 10,8 0 0 8 4 N -
14.09.2019 07:00:00 11,8 11,3 2 1 8 4 ENE 0,0
14.09.2019 06:00:00 12,4 11,6 4 2 8 4 SW 0,2
14.09.2019 05:00:00 12,9 12,1 2 1 8 4 NNE 0,0

tt = Température de l'air
td = dewpoint
ff = Vitesse du vent
fx = gusts
dd = Direction du vent
rr = Quantités de précipitations

stations d'obs. à proximité